Rock Camp, Ohio
Current Conditions -  °F | °C
As of 4:51 PM on Saturday 25 Oct 2014 (Local Time) from KHTS Reporting Station
Clear Clear  
Wind Chill: 67°   Ceiling: Unl
Heat Index: 67°   Visibility: 10mi
Dew Point: 52°   Wind: 14mph
Humidity: 59%   Direction: 220°SW
Pressure: 29.91"   Gusts: 20mph
Location:  38.52°N, 82.54°W
Report Text: KHTS 252051Z 22012G17KT 10SM CLR 19/11 A2991 RMK AO2 SLP127 T01940111 56021
Loading
Personal Weather Stations






























Interactive Weather Map
Tropical Storm Tracking
New forecast layout! Learn more

10-Day Weather Forecast

Advertisements
Track Severe Weather on mobile